sensor_id;sensor_type;location;lat;lon;timestamp;pressure;altitude;pressure_sealevel;temperature;humidity
63927;BME280;50103;47.960;21.712;2023-02-13T06:03:17;102592.30;;;-0.89;86.85
63927;BME280;50103;47.960;21.712;2023-02-13T06:05:43;102591.64;;;-0.86;87.02
63927;BME280;50103;47.960;21.712;2023-02-13T06:08:08;102591.84;;;-0.84;87.05
63927;BME280;50103;47.960;21.712;2023-02-13T06:10:34;102588.20;;;-0.82;87.03
63927;BME280;50103;47.960;21.712;2023-02-13T06:12:59;102593.23;;;-0.79;87.05
63927;BME280;50103;47.960;21.712;2023-02-13T06:15:25;102599.50;;;-0.77;87.05
63927;BME280;50103;47.960;21.712;2023-02-13T06:17:51;102602.64;;;-0.76;86.89
63927;BME280;50103;47.960;21.712;2023-02-13T06:20:17;102608.22;;;-0.75;87.24
63927;BME280;50103;47.960;21.712;2023-02-13T06:22:43;102609.11;;;-0.72;87.25
63927;BME280;50103;47.960;21.712;2023-02-13T06:25:08;102608.26;;;-0.70;87.28
63927;BME280;50103;47.960;21.712;2023-02-13T06:27:34;102607.93;;;-0.67;87.12
63927;BME280;50103;47.960;21.712;2023-02-13T06:30:00;102607.77;;;-0.65;87.30
63927;BME280;50103;47.960;21.712;2023-02-13T06:32:26;102608.11;;;-0.63;87.37
63927;BME280;50103;47.960;21.712;2023-02-13T06:34:51;102613.35;;;-0.60;87.55
63927;BME280;50103;47.960;21.712;2023-02-13T06:37:17;102617.38;;;-0.57;87.45
63927;BME280;50103;47.960;21.712;2023-02-13T06:39:43;102614.61;;;-0.54;87.69
63927;BME280;50103;47.960;21.712;2023-02-13T06:42:09;102620.20;;;-0.51;87.64
63927;BME280;50103;47.960;21.712;2023-02-13T06:44:35;102619.52;;;-0.50;87.78
63927;BME280;50103;47.960;21.712;2023-02-13T06:47:00;102615.85;;;-0.48;87.73
63927;BME280;50103;47.960;21.712;2023-02-13T06:49:26;102618.30;;;-0.46;87.60
63927;BME280;50103;47.960;21.712;2023-02-13T06:51:51;102622.84;;;-0.44;87.78
63927;BME280;50103;47.960;21.712;2023-02-13T06:54:17;102625.63;;;-0.43;87.87
63927;BME280;50103;47.960;21.712;2023-02-13T06:56:43;102627.90;;;-0.42;87.87
63927;BME280;50103;47.960;21.712;2023-02-13T06:59:08;102630.70;;;-0.41;87.99
63927;BME280;50103;47.960;21.712;2023-02-13T07:01:34;102624.80;;;-0.39;88.07
63927;BME280;50103;47.960;21.712;2023-02-13T07:04:00;102621.67;;;-0.36;88.38
63927;BME280;50103;47.960;21.712;2023-02-13T07:06:25;102625.17;;;-0.35;88.33
63927;BME280;50103;47.960;21.712;2023-02-13T07:08:51;102625.17;;;-0.33;88.42
63927;BME280;50103;47.960;21.712;2023-02-13T07:11:21;102628.47;;;-0.30;88.52
63927;BME280;50103;47.960;21.712;2023-02-13T07:13:48;102629.36;;;-0.29;88.63
63927;BME280;50103;47.960;21.712;2023-02-13T07:16:14;102629.71;;;-0.29;88.62
63927;BME280;50103;47.960;21.712;2023-02-13T07:18:41;102630.23;;;-0.27;88.64
63927;BME280;50103;47.960;21.712;2023-02-13T07:21:07;102635.48;;;-0.25;89.03
63927;BME280;50103;47.960;21.712;2023-02-13T07:23:35;102632.70;;;-0.24;88.94
63927;BME280;50103;47.960;21.712;2023-02-13T07:26:01;102625.92;;;-0.21;88.85
63927;BME280;50103;47.960;21.712;2023-02-13T07:28:28;102628.38;;;-0.18;88.96
63927;BME280;50103;47.960;21.712;2023-02-13T07:30:54;102629.23;;;-0.15;88.96
63927;BME280;50103;47.960;21.712;2023-02-13T07:33:20;102630.30;;;-0.12;89.07
63927;BME280;50103;47.960;21.712;2023-02-13T07:35:47;102629.45;;;-0.09;89.09
63927;BME280;50103;47.960;21.712;2023-02-13T07:38:13;102629.12;;;-0.05;89.05
63927;BME280;50103;47.960;21.712;2023-02-13T07:40:39;102627.05;;;0.00;89.24
63927;BME280;50103;47.960;21.712;2023-02-13T07:43:04;102626.73;;;0.08;89.23
63927;BME280;50103;47.960;21.712;2023-02-13T07:45:30;102631.98;;;0.14;89.33
63927;BME280;50103;47.960;21.712;2023-02-13T07:47:56;102634.42;;;0.20;89.27
63927;BME280;50103;47.960;21.712;2023-02-13T07:50:23;102636.01;;;0.23;89.18
63927;BME280;50103;47.960;21.712;2023-02-13T07:52:55;102633.41;;;0.27;89.23
63927;BME280;50103;47.960;21.712;2023-02-13T07:55:21;102635.88;;;0.31;89.07
63927;BME280;50103;47.960;21.712;2023-02-13T07:57:48;102637.25;;;0.34;89.17
63927;BME280;50103;47.960;21.712;2023-02-13T08:00:19;102637.96;;;0.37;89.10
63927;BME280;50103;47.960;21.712;2023-02-13T08:02:45;102638.14;;;0.41;88.86
63927;BME280;50103;47.960;21.712;2023-02-13T08:05:11;102638.51;;;0.43;88.82
63927;BME280;50103;47.960;21.712;2023-02-13T08:07:37;102640.79;;;0.47;88.78
63927;BME280;50103;47.960;21.712;2023-02-13T08:10:05;102641.80;;;0.50;88.77
63927;BME280;50103;47.960;21.712;2023-02-13T08:12:51;102641.65;;;0.55;88.65
63927;BME280;50103;47.960;21.712;2023-02-13T08:15:17;102640.45;;;0.59;88.62
63927;BME280;50103;47.960;21.712;2023-02-13T08:17:42;102637.84;;;0.63;88.56
63927;BME280;50103;47.960;21.712;2023-02-13T08:20:12;102635.73;;;0.68;88.47
63927;BME280;50103;47.960;21.712;2023-02-13T08:22:38;102631.57;;;0.73;88.30
63927;BME280;50103;47.960;21.712;2023-02-13T08:25:05;102627.23;;;0.78;88.28
63927;BME280;50103;47.960;21.712;2023-02-13T08:27:32;102626.51;;;0.82;87.87
63927;BME280;50103;47.960;21.712;2023-02-13T08:30:01;102631.23;;;0.87;87.77
63927;BME280;50103;47.960;21.712;2023-02-13T08:32:28;102632.98;;;0.91;87.64
63927;BME280;50103;47.960;21.712;2023-02-13T08:34:54;102631.06;;;0.96;87.39
63927;BME280;50103;47.960;21.712;2023-02-13T08:37:19;102632.45;;;1.01;87.52
63927;BME280;50103;47.960;21.712;2023-02-13T08:39:45;102629.48;;;1.07;87.61
63927;BME280;50103;47.960;21.712;2023-02-13T08:42:11;102628.27;;;1.13;87.54
63927;BME280;50103;47.960;21.712;2023-02-13T08:44:40;102628.94;;;1.17;87.36
63927;BME280;50103;47.960;21.712;2023-02-13T08:47:07;102627.71;;;1.19;87.27
63927;BME280;50103;47.960;21.712;2023-02-13T08:49:33;102622.84;;;1.23;86.93
63927;BME280;50103;47.960;21.712;2023-02-13T08:51:59;102617.08;;;1.28;86.98
63927;BME280;50103;47.960;21.712;2023-02-13T08:54:25;102615.13;;;1.35;86.96
63927;BME280;50103;47.960;21.712;2023-02-13T08:56:53;102614.77;;;1.40;86.91
63927;BME280;50103;47.960;21.712;2023-02-13T08:59:19;102610.73;;;1.47;87.28
63927;BME280;50103;47.960;21.712;2023-02-13T09:01:44;102611.59;;;1.53;87.14
63927;BME280;50103;47.960;21.712;2023-02-13T09:04:10;102611.59;;;1.58;87.34
63927;BME280;50103;47.960;21.712;2023-02-13T09:06:35;102614.54;;;1.63;87.39
63927;BME280;50103;47.960;21.712;2023-02-13T09:09:04;102614.52;;;1.68;87.18
63927;BME280;50103;47.960;21.712;2023-02-13T09:11:30;102612.41;;;1.73;87.31
63927;BME280;50103;47.960;21.712;2023-02-13T09:13:55;102606.64;;;1.78;87.42
63927;BME280;50103;47.960;21.712;2023-02-13T09:16:21;102602.40;;;1.84;87.57
63927;BME280;50103;47.960;21.712;2023-02-13T09:18:48;102601.34;;;1.89;87.62
63927;BME280;50103;47.960;21.712;2023-02-13T09:21:14;102603.24;;;1.94;87.24
63927;BME280;50103;47.960;21.712;2023-02-13T09:23:40;102601.98;;;2.00;87.22
63927;BME280;50103;47.960;21.712;2023-02-13T09:26:11;102602.84;;;2.05;87.00
63927;BME280;50103;47.960;21.712;2023-02-13T09:28:38;102600.20;;;2.09;86.59
63927;BME280;50103;47.960;21.712;2023-02-13T09:31:09;102595.79;;;2.14;86.83
63927;BME280;50103;47.960;21.712;2023-02-13T09:33:35;102595.23;;;2.20;86.10
63927;BME280;50103;47.960;21.712;2023-02-13T09:36:10;102592.75;;;2.26;85.71
63927;BME280;50103;47.960;21.712;2023-02-13T09:38:36;102590.61;;;2.32;84.91
63927;BME280;50103;47.960;21.712;2023-02-13T09:41:06;102585.86;;;2.38;85.44
63927;BME280;50103;47.960;21.712;2023-02-13T09:44:15;102585.46;;;2.45;85.05
63927;BME280;50103;47.960;21.712;2023-02-13T09:46:32;102586.10;;;2.54;84.34
63927;BME280;50103;47.960;21.712;2023-02-13T09:49:02;102578.15;;;2.62;83.93
63927;BME280;50103;47.960;21.712;2023-02-13T09:51:30;102576.70;;;2.70;84.03
63927;BME280;50103;47.960;21.712;2023-02-13T09:53:59;102575.95;;;2.77;83.74
63927;BME280;50103;47.960;21.712;2023-02-13T09:56:59;102579.71;;;2.87;83.05
63927;BME280;50103;47.960;21.712;2023-02-13T09:59:42;102569.82;;;2.97;82.61
63927;BME280;50103;47.960;21.712;2023-02-13T10:05:17;102562.68;;;3.10;81.67
63927;BME280;50103;47.960;21.712;2023-02-13T10:11:01;102556.02;;;3.28;80.86
63927;BME280;50103;47.960;21.712;2023-02-13T10:13:47;102551.02;;;3.38;81.37
63927;BME280;50103;47.960;21.712;2023-02-13T10:16:22;102549.29;;;3.50;80.81
63927;BME280;50103;47.960;21.712;2023-02-13T10:18:59;102549.15;;;3.62;80.09
63927;BME280;50103;47.960;21.712;2023-02-13T10:21:32;102543.41;;;3.72;79.41
63927;BME280;50103;47.960;21.712;2023-02-13T10:27:19;102543.33;;;3.91;78.05
63927;BME280;50103;47.960;21.712;2023-02-13T10:32:58;102530.66;;;4.07;77.79
63927;BME280;50103;47.960;21.712;2023-02-13T10:38:17;102519.36;;;4.24;77.06
63927;BME280;50103;47.960;21.712;2023-02-13T10:41:12;102521.04;;;4.40;77.72
63927;BME280;50103;47.960;21.712;2023-02-13T10:43:39;102515.55;;;4.84;77.16
63927;BME280;50103;47.960;21.712;2023-02-13T10:49:35;102496.58;;;5.80;74.81
63927;BME280;50103;47.960;21.712;2023-02-13T10:55:28;102478.78;;;6.14;70.56
63927;BME280;50103;47.960;21.712;2023-02-13T11:00:57;102463.71;;;6.11;69.12
63927;BME280;50103;47.960;21.712;2023-02-13T11:03:25;102458.27;;;6.03;68.86
63927;BME280;50103;47.960;21.712;2023-02-13T11:05:53;102462.89;;;6.01;68.19
63927;BME280;50103;47.960;21.712;2023-02-13T11:08:30;102459.43;;;5.99;68.11
63927;BME280;50103;47.960;21.712;2023-02-13T11:10:57;102461.63;;;6.02;68.64
63927;BME280;50103;47.960;21.712;2023-02-13T11:13:26;102463.80;;;6.07;67.12
63927;BME280;50103;47.960;21.712;2023-02-13T11:16:04;102456.51;;;6.03;67.04
63927;BME280;50103;47.960;21.712;2023-02-13T11:18:33;102455.80;;;6.03;67.37
63927;BME280;50103;47.960;21.712;2023-02-13T11:23:41;102459.55;;;6.23;67.33
63927;BME280;50103;47.960;21.712;2023-02-13T11:26:15;102456.37;;;6.31;66.62
63927;BME280;50103;47.960;21.712;2023-02-13T11:28:50;102455.85;;;6.45;66.41
63927;BME280;50103;47.960;21.712;2023-02-13T11:31:29;102450.34;;;6.59;66.47
63927;BME280;50103;47.960;21.712;2023-02-13T11:33:57;102450.75;;;6.84;65.92
63927;BME280;50103;47.960;21.712;2023-02-13T11:36:32;102440.35;;;7.03;65.18
63927;BME280;50103;47.960;21.712;2023-02-13T11:39:04;102443.03;;;7.27;63.17
63927;BME280;50103;47.960;21.712;2023-02-13T11:41:38;102439.20;;;7.42;63.20
63927;BME280;50103;47.960;21.712;2023-02-13T11:45:01;102435.95;;;7.62;62.79
63927;BME280;50103;47.960;21.712;2023-02-13T11:47:07;102430.09;;;7.81;61.53
63927;BME280;50103;47.960;21.712;2023-02-13T11:49:44;102433.30;;;7.96;61.33
63927;BME280;50103;47.960;21.712;2023-02-13T11:52:27;102434.26;;;8.15;60.13
63927;BME280;50103;47.960;21.712;2023-02-13T11:55:01;102429.55;;;8.30;59.64
63927;BME280;50103;47.960;21.712;2023-02-13T11:58:41;102428.02;;;8.49;59.04
63927;BME280;50103;47.960;21.712;2023-02-13T12:00:47;102419.52;;;8.65;58.67
63927;BME280;50103;47.960;21.712;2023-02-13T12:03:27;102415.80;;;8.75;57.49
63927;BME280;50103;47.960;21.712;2023-02-13T12:08:29;102409.74;;;9.15;57.98
63927;BME280;50103;47.960;21.712;2023-02-13T12:10:56;102403.11;;;9.36;56.82
63927;BME280;50103;47.960;21.712;2023-02-13T12:13:39;102401.28;;;9.51;56.29
63927;BME280;50103;47.960;21.712;2023-02-13T12:16:37;102398.53;;;9.71;55.95
63927;BME280;50103;47.960;21.712;2023-02-13T12:19:02;102394.12;;;9.84;55.42
63927;BME280;50103;47.960;21.712;2023-02-13T12:21:46;102390.48;;;9.91;54.87
